createdAt,value
2023-03-06T00:00:00.636Z,8.63
2023-03-06T00:02:28.588Z,7.28
2023-03-06T00:04:55.214Z,8.68
2023-03-06T00:07:22.574Z,7.32
2023-03-06T00:09:49.675Z,7.80
2023-03-06T00:12:16.417Z,9.73
2023-03-06T00:14:44.830Z,6.47
2023-03-06T00:17:11.410Z,5.63
2023-03-06T00:19:40.441Z,6.07
2023-03-06T00:22:07.661Z,4.95
2023-03-06T00:24:34.498Z,5.47
2023-03-06T00:27:01.116Z,7.32
2023-03-06T00:29:27.720Z,6.15
2023-03-06T00:31:54.332Z,4.72
2023-03-06T00:34:21.249Z,3.58
2023-03-06T00:36:49.960Z,3.43
2023-03-06T00:39:19.420Z,6.25
2023-03-06T00:41:48.926Z,4.70
2023-03-06T00:44:15.510Z,4.35
2023-03-06T00:46:42.078Z,3.90
2023-03-06T00:49:08.899Z,5.03
2023-03-06T00:51:36.131Z,6.68
2023-03-06T00:54:05.676Z,6.68
2023-03-06T00:56:32.623Z,6.45
2023-03-06T00:59:00.307Z,6.30
2023-03-06T01:01:27.191Z,11.03
2023-03-06T01:03:56.608Z,10.35
2023-03-06T01:06:23.710Z,7.97
2023-03-06T01:08:50.930Z,10.30
2023-03-06T01:11:19.659Z,8.88
2023-03-06T01:13:48.282Z,10.60
2023-03-06T01:16:16.800Z,10.75
2023-03-06T01:18:46.603Z,10.30
2023-03-06T01:21:14.123Z,10.82
2023-03-06T01:23:41.765Z,9.63
2023-03-06T01:26:08.563Z,12.07
2023-03-06T01:28:38.036Z,11.80
2023-03-06T01:31:05.710Z,15.45
2023-03-06T01:33:33.173Z,12.93
2023-03-06T01:36:00.087Z,10.10
2023-03-06T01:38:27.229Z,8.53
2023-03-06T01:40:53.915Z,8.23
2023-03-06T01:43:27.570Z,10.25
2023-03-06T01:46:28.836Z,8.70
2023-03-06T01:49:00.471Z,9.48
2023-03-06T01:51:31.987Z,8.87
2023-03-06T01:54:03.452Z,8.73
2023-03-06T01:56:30.449Z,9.18
2023-03-06T01:58:58.415Z,10.07
2023-03-06T02:01:26.726Z,10.57
2023-03-06T02:03:54.626Z,10.33
2023-03-06T02:06:21.219Z,9.85
2023-03-06T02:08:49.498Z,10.52
2023-03-06T02:11:19.112Z,13.02
2023-03-06T02:13:46.695Z,11.48
2023-03-06T02:16:14.820Z,12.47
2023-03-06T02:18:44.866Z,13.30
2023-03-06T02:21:15.804Z,14.00
2023-03-06T02:23:54.317Z,12.82
2023-03-06T02:26:23.804Z,13.57
2023-03-06T02:28:50.362Z,12.83
2023-03-06T02:31:22.407Z,14.98
2023-03-06T02:34:01.385Z,14.57
2023-03-06T02:36:29.681Z,13.45
2023-03-06T02:38:57.129Z,16.90
2023-03-06T02:41:25.686Z,16.47
2023-03-06T02:43:53.092Z,13.18
2023-03-06T02:46:19.705Z,13.05
2023-03-06T02:48:46.573Z,15.13
2023-03-06T02:51:13.242Z,15.63
2023-03-06T02:53:39.844Z,13.67
2023-03-06T02:56:07.184Z,13.32
2023-03-06T02:58:35.538Z,13.85
2023-03-06T03:01:02.163Z,14.90
2023-03-06T03:03:28.970Z,18.10
2023-03-06T03:05:55.862Z,15.70
2023-03-06T03:08:22.897Z,17.58
2023-03-06T03:10:49.519Z,14.23
2023-03-06T03:13:16.189Z,14.90
2023-03-06T03:15:44.414Z,17.38
2023-03-06T03:18:11.258Z,16.53
2023-03-06T03:20:42.064Z,19.55
2023-03-06T03:23:08.644Z,15.95
2023-03-06T03:25:35.393Z,19.40
2023-03-06T03:28:02.029Z,17.10
2023-03-06T03:30:28.602Z,19.40
2023-03-06T03:32:56.507Z,16.20
2023-03-06T03:35:23.289Z,18.27
2023-03-06T03:37:50.305Z,16.50
2023-03-06T03:40:17.191Z,15.77
2023-03-06T03:42:43.946Z,15.60
2023-03-06T03:45:11.552Z,15.98
2023-03-06T03:47:38.372Z,17.13
2023-03-06T03:50:07.452Z,13.20
2023-03-06T03:52:34.056Z,15.18
2023-03-06T03:55:00.929Z,16.83
2023-03-06T03:57:27.542Z,18.65
2023-03-06T03:59:54.140Z,18.00
2023-03-06T04:02:20.888Z,15.48
2023-03-06T04:04:47.562Z,16.00
2023-03-06T04:07:15.678Z,14.83
2023-03-06T04:09:42.273Z,15.00
2023-03-06T04:12:09.336Z,15.05
2023-03-06T04:14:35.939Z,13.48
2023-03-06T04:17:02.677Z,12.18
2023-03-06T04:19:29.242Z,14.03
2023-03-06T04:21:55.816Z,15.48
2023-03-06T04:24:23.772Z,14.50
2023-03-06T04:26:50.357Z,13.45
2023-03-06T04:29:16.929Z,15.75
2023-03-06T04:31:43.540Z,14.83
2023-03-06T04:34:10.248Z,13.52
2023-03-06T04:36:37.171Z,13.88
2023-03-06T04:39:04.316Z,15.13
2023-03-06T04:41:32.509Z,15.95
2023-03-06T04:43:59.238Z,18.03
2023-03-06T04:46:25.975Z,18.17
2023-03-06T04:48:52.622Z,14.27
2023-03-06T04:51:19.398Z,15.23
2023-03-06T04:53:46.065Z,14.82
2023-03-06T04:56:13.016Z,15.23
2023-03-06T04:58:42.583Z,14.27
2023-03-06T05:01:09.686Z,14.32
2023-03-06T05:03:36.345Z,15.10
2023-03-06T05:06:02.963Z,16.17
2023-03-06T05:08:29.886Z,15.80
2023-03-06T05:10:58.167Z,16.15
2023-03-06T05:13:25.660Z,16.00
2023-03-06T05:15:54.068Z,17.80
2023-03-06T05:18:20.992Z,22.13
2023-03-06T05:20:47.561Z,19.20
2023-03-06T05:23:14.372Z,21.17
2023-03-06T05:25:40.964Z,17.73
2023-03-06T05:28:08.212Z,17.13
2023-03-06T05:30:35.668Z,20.02
2023-03-06T05:33:03.777Z,17.07
2023-03-06T05:35:30.498Z,16.52
2023-03-06T05:37:57.081Z,18.88
2023-03-06T05:40:23.767Z,19.63
2023-03-06T05:42:50.494Z,21.23
2023-03-06T05:45:17.298Z,18.13
2023-03-06T05:47:44.153Z,20.60
2023-03-06T05:50:12.988Z,20.92
2023-03-06T05:52:39.714Z,19.38
2023-03-06T05:55:07.724Z,17.65
2023-03-06T05:57:45.945Z,19.13
2023-03-06T06:00:14.311Z,19.63
2023-03-06T06:02:41.494Z,19.45
2023-03-06T06:05:10.257Z,19.38
2023-03-06T06:07:39.502Z,19.42
2023-03-06T06:10:07.475Z,18.33
2023-03-06T06:15:17.742Z,18.98
2023-03-06T06:17:44.341Z,21.02
2023-03-06T06:20:12.024Z,20.77
2023-03-06T06:22:39.986Z,21.63
2023-03-06T06:25:07.912Z,17.60
2023-03-06T06:27:34.502Z,22.13
2023-03-06T06:30:01.106Z,20.83
2023-03-06T06:32:27.666Z,21.27
2023-03-06T06:34:54.782Z,19.58
2023-03-06T06:37:21.629Z,20.50
2023-03-06T06:39:49.539Z,22.65
2023-03-06T06:42:31.009Z,21.00
2023-03-06T06:44:59.733Z,19.97
2023-03-06T06:47:26.466Z,20.58
2023-03-06T06:49:54.957Z,18.33
2023-03-06T06:52:22.218Z,17.92
2023-03-06T06:54:50.148Z,20.58
2023-03-06T06:57:17.383Z,19.87
2023-03-06T06:59:44.000Z,21.42
2023-03-06T07:02:14.614Z,20.35
2023-03-06T07:04:56.101Z,19.92
2023-03-06T07:07:27.548Z,21.40
2023-03-06T07:09:58.995Z,25.08
2023-03-06T07:12:25.759Z,20.38
2023-03-06T07:14:52.307Z,21.55
2023-03-06T07:17:18.944Z,24.10
2023-03-06T07:19:45.711Z,23.17
2023-03-06T07:22:12.552Z,21.30
2023-03-06T07:24:39.125Z,24.30
2023-03-06T07:27:07.190Z,22.02
2023-03-06T07:29:33.908Z,21.83
2023-03-06T07:32:00.629Z,24.33
2023-03-06T07:34:27.250Z,20.02
2023-03-06T07:36:53.994Z,21.92
2023-03-06T07:39:20.599Z,21.17
2023-03-06T07:41:50.091Z,19.73
2023-03-06T07:44:18.121Z,19.70
2023-03-06T07:46:44.720Z,18.58
2023-03-06T07:49:11.333Z,22.42
2023-03-06T07:51:37.903Z,19.42
2023-03-06T07:54:04.528Z,22.20
2023-03-06T07:56:30.951Z,21.43
2023-03-06T07:58:57.677Z,19.63
2023-03-06T08:01:26.012Z,20.20
2023-03-06T08:03:53.042Z,17.35
2023-03-06T08:06:23.058Z,16.50
2023-03-06T08:08:50.673Z,17.27
2023-03-06T08:11:19.448Z,19.63
2023-03-06T08:13:46.509Z,17.40
2023-03-06T08:16:13.121Z,18.33
2023-03-06T08:18:41.453Z,19.02
2023-03-06T08:21:09.917Z,17.70
2023-03-06T08:23:37.107Z,17.95
2023-03-06T08:26:05.593Z,18.45
2023-03-06T08:28:32.676Z,16.52
2023-03-06T08:31:06.914Z,19.98
2023-03-06T08:33:33.582Z,17.83
2023-03-06T08:36:02.464Z,19.60
2023-03-06T08:38:29.211Z,18.08
2023-03-06T08:40:55.947Z,18.40
2023-03-06T08:43:22.606Z,17.75
2023-03-06T08:45:52.059Z,20.33
2023-03-06T08:48:18.716Z,20.13
2023-03-06T08:50:45.335Z,18.40
2023-03-06T08:53:13.589Z,18.30
2023-03-06T08:55:40.254Z,18.85
2023-03-06T08:58:06.976Z,25.67
2023-03-06T09:00:34.046Z,25.63
2023-03-06T09:03:00.849Z,24.95
2023-03-06T09:05:27.432Z,21.88
2023-03-06T09:07:54.129Z,23.25
2023-03-06T09:10:24.596Z,22.27
2023-03-06T09:12:54.423Z,24.13
2023-03-06T09:15:22.865Z,24.67
2023-03-06T09:17:49.632Z,29.55
2023-03-06T09:20:16.976Z,27.08
2023-03-06T09:22:43.751Z,25.20
2023-03-06T09:25:10.559Z,23.73
2023-03-06T09:27:38.613Z,25.60
2023-03-06T09:30:07.103Z,23.63
2023-03-06T09:32:33.687Z,24.73
2023-03-06T09:35:00.862Z,21.97
2023-03-06T09:37:27.454Z,24.88
2023-03-06T09:39:54.025Z,22.63
2023-03-06T09:42:22.068Z,31.73
2023-03-06T09:44:54.114Z,38.53
2023-03-06T09:47:40.741Z,27.60
2023-03-06T09:50:34.631Z,25.20
2023-03-06T09:53:31.070Z,23.08
2023-03-06T09:56:02.425Z,26.00
2023-03-06T09:58:34.214Z,24.42
2023-03-06T10:01:06.613Z,19.90
2023-03-06T10:03:39.522Z,22.10
2023-03-06T10:06:12.935Z,21.33
2023-03-06T10:08:49.005Z,29.65
2023-03-06T10:11:22.349Z,25.38
2023-03-06T10:13:53.904Z,22.50
2023-03-06T10:16:27.589Z,21.27
2023-03-06T10:18:59.487Z,19.83
2023-03-06T10:21:39.014Z,20.70
2023-03-06T10:24:20.124Z,21.55
2023-03-06T10:26:52.141Z,22.23
2023-03-06T10:29:39.215Z,17.45
2023-03-06T10:32:14.172Z,17.55
2023-03-06T10:34:42.410Z,17.17
2023-03-06T10:37:18.457Z,17.30
2023-03-06T10:39:45.182Z,14.47
2023-03-06T10:42:11.906Z,18.95
2023-03-06T10:44:39.122Z,16.40
2023-03-06T10:47:35.672Z,15.25
2023-03-06T10:50:06.665Z,18.10
2023-03-06T10:52:35.616Z,16.57
2023-03-06T10:55:33.055Z,17.88
2023-03-06T10:58:17.348Z,15.60
2023-03-06T11:00:44.043Z,15.75
2023-03-06T11:03:29.882Z,17.58
2023-03-06T11:06:07.603Z,17.87
2023-03-06T11:08:40.060Z,17.63
2023-03-06T11:11:10.841Z,15.02
2023-03-06T11:13:46.035Z,16.23
2023-03-06T11:16:29.183Z,17.15
2023-03-06T11:19:20.942Z,14.33
2023-03-06T11:22:07.297Z,12.90
2023-03-06T11:24:52.116Z,18.67
2023-03-06T11:27:25.433Z,13.63
2023-03-06T11:30:01.845Z,14.57
2023-03-06T11:32:40.496Z,15.43
2023-03-06T11:35:23.100Z,14.00
2023-03-06T11:38:05.307Z,14.90
2023-03-06T11:40:56.615Z,19.35
2023-03-06T11:43:38.316Z,16.73
2023-03-06T11:46:24.439Z,14.53
2023-03-06T11:48:58.551Z,18.40
2023-03-06T11:51:36.571Z,15.40
2023-03-06T11:58:19.673Z,14.70
2023-03-06T12:01:45.457Z,14.63
2023-03-06T12:08:47.543Z,13.55
2023-03-06T12:18:48.672Z,13.83
2023-03-06T12:21:49.318Z,12.95
2023-03-06T12:24:40.047Z,13.98
2023-03-06T12:27:15.369Z,15.45
2023-03-06T12:29:57.972Z,11.82
2023-03-06T12:32:39.892Z,15.27
2023-03-06T12:35:23.762Z,15.73
2023-03-06T12:38:07.422Z,14.88
2023-03-06T13:14:00.437Z,14.23
2023-03-06T13:16:43.982Z,17.02
2023-03-06T13:19:20.359Z,17.03
2023-03-06T13:23:06.709Z,12.38
2023-03-06T13:26:16.807Z,13.82
2023-03-06T13:28:46.470Z,19.10
2023-03-06T13:31:26.474Z,14.93
2023-03-06T13:34:05.044Z,17.13
2023-03-06T13:36:34.746Z,14.18
2023-03-06T13:39:05.532Z,14.07
2023-03-06T13:42:04.474Z,15.32
2023-03-06T13:44:56.434Z,13.68
2023-03-06T13:48:41.582Z,13.13
2023-03-06T13:50:57.736Z,13.77
2023-03-06T13:54:09.948Z,12.18
2023-03-06T14:00:55.598Z,13.32
2023-03-06T14:04:05.889Z,13.37
2023-03-06T14:06:53.085Z,13.05
2023-03-06T14:09:26.780Z,15.43
2023-03-06T14:11:57.363Z,11.82
2023-03-06T14:14:32.323Z,12.00
2023-03-06T14:17:05.767Z,12.30
2023-03-06T14:19:37.911Z,15.90
2023-03-06T14:22:27.906Z,12.65
2023-03-06T14:24:59.376Z,19.38
2023-03-06T14:27:41.559Z,12.05
2023-03-06T14:30:12.513Z,13.10
2023-03-06T14:32:40.405Z,9.85
2023-03-06T14:35:20.744Z,12.90
2023-03-06T14:37:49.178Z,14.77
2023-03-06T14:40:18.942Z,12.57
2023-03-06T14:42:45.574Z,13.87
2023-03-06T14:45:16.654Z,15.40
2023-03-06T14:47:44.128Z,13.07
2023-03-06T14:50:24.021Z,10.45
2023-03-06T14:52:54.184Z,9.18
2023-03-06T14:55:59.777Z,10.77
2023-03-06T14:58:31.431Z,10.02
2023-03-06T15:03:58.241Z,14.57
2023-03-06T15:42:06.083Z,17.43
2023-03-06T17:02:41.729Z,12.93
2023-03-06T18:14:39.095Z,16.30
2023-03-06T18:17:05.918Z,14.77
2023-03-06T18:19:35.033Z,16.80
2023-03-06T18:22:01.627Z,16.27
2023-03-06T18:24:37.308Z,18.08
2023-03-06T18:27:04.065Z,18.38
2023-03-06T18:29:30.743Z,17.65
2023-03-06T18:31:58.903Z,18.88
2023-03-06T18:34:28.170Z,13.47
2023-03-06T18:36:54.910Z,15.20
2023-03-06T18:39:21.626Z,21.40
2023-03-06T18:41:50.141Z,18.95
2023-03-06T18:44:18.188Z,18.20
2023-03-06T18:46:45.256Z,14.63
2023-03-06T18:49:14.048Z,15.02
2023-03-06T18:51:41.330Z,19.45
2023-03-06T18:54:08.445Z,14.50
2023-03-06T18:56:35.093Z,16.60
2023-03-06T18:59:02.640Z,17.87
2023-03-06T19:01:29.452Z,19.80
2023-03-06T19:03:56.152Z,18.80
2023-03-06T19:06:24.584Z,15.07
2023-03-06T19:08:52.070Z,14.57
2023-03-06T19:11:18.632Z,13.53
2023-03-06T19:13:45.406Z,15.75
2023-03-06T19:16:17.326Z,17.85
2023-03-06T19:18:47.358Z,17.60
2023-03-06T19:21:19.531Z,17.08
2023-03-06T19:23:47.640Z,16.57
2023-03-06T19:26:15.010Z,21.08
2023-03-06T19:28:42.746Z,19.75
2023-03-06T19:31:29.606Z,15.50
2023-03-06T19:35:27.477Z,16.17
2023-03-06T19:57:33.428Z,14.95
2023-03-06T20:00:00.117Z,19.17
2023-03-06T20:02:26.795Z,15.13
2023-03-06T20:04:53.737Z,18.75
2023-03-06T20:07:21.915Z,19.37
2023-03-06T20:09:48.597Z,15.55
2023-03-06T20:12:15.894Z,16.67
2023-03-06T20:14:42.717Z,14.50
2023-03-06T20:17:09.278Z,15.95
2023-03-06T20:19:36.760Z,13.47
2023-03-06T20:22:03.810Z,15.55
2023-03-06T20:24:31.731Z,11.85
2023-03-06T20:26:58.487Z,15.25
2023-03-06T20:29:26.662Z,11.90
2023-03-06T20:31:56.213Z,14.77
2023-03-06T20:34:23.835Z,17.73
2023-03-06T20:36:50.648Z,14.05
2023-03-06T20:39:22.085Z,13.40
2023-03-06T20:41:50.192Z,15.50
2023-03-06T20:44:19.528Z,15.70
2023-03-06T20:46:46.367Z,17.15
2023-03-06T20:49:13.417Z,14.93
2023-03-06T20:51:41.113Z,16.15
2023-03-06T20:54:09.773Z,17.10
2023-03-06T20:56:37.374Z,18.40
2023-03-06T20:59:05.975Z,17.10
2023-03-06T21:01:34.883Z,18.08
2023-03-06T21:04:03.021Z,19.52
2023-03-06T21:06:30.523Z,19.42
2023-03-06T21:08:58.444Z,14.53
2023-03-06T21:11:25.630Z,19.90
2023-03-06T21:13:55.436Z,17.70
2023-03-06T21:16:25.586Z,17.05
2023-03-06T21:18:54.348Z,17.40
2023-03-06T21:21:23.207Z,18.33
2023-03-06T21:23:50.619Z,19.90
2023-03-06T21:26:19.313Z,16.70
2023-03-06T21:28:46.547Z,16.10
2023-03-06T21:31:15.655Z,20.98
2023-03-06T21:33:44.715Z,17.17
2023-03-06T21:36:14.659Z,18.23
2023-03-06T21:38:41.577Z,20.67
2023-03-06T21:41:14.474Z,22.35
2023-03-06T21:43:41.714Z,22.38
2023-03-06T21:46:08.766Z,21.60
2023-03-06T21:48:35.842Z,21.08
2023-03-06T21:51:14.548Z,20.13
2023-03-06T21:53:42.195Z,23.30
2023-03-06T21:56:09.398Z,22.17
2023-03-06T21:58:38.957Z,24.03
2023-03-06T22:01:08.995Z,21.95
2023-03-06T22:03:35.611Z,24.45
2023-03-06T22:06:10.860Z,27.42
2023-03-06T22:08:38.844Z,23.35
2023-03-06T22:11:06.996Z,26.47
2023-03-06T22:13:35.935Z,23.45
2023-03-06T22:16:02.943Z,26.25
2023-03-06T22:18:29.543Z,20.70
2023-03-06T22:20:56.245Z,26.17
2023-03-06T22:23:23.032Z,22.58
2023-03-06T22:25:50.962Z,25.85
2023-03-06T22:28:18.580Z,23.60
2023-03-06T22:30:45.314Z,22.92
2023-03-06T22:33:12.032Z,23.07
2023-03-06T22:35:38.682Z,25.23
2023-03-06T22:38:05.349Z,23.95
2023-03-06T22:40:33.134Z,25.00
2023-03-06T22:43:01.198Z,21.58
2023-03-06T22:45:28.326Z,22.40
2023-03-06T22:48:02.349Z,24.80
2023-03-06T22:50:36.952Z,21.15
2023-03-06T22:53:03.741Z,22.60
2023-03-06T22:55:30.996Z,21.75
2023-03-06T22:57:57.590Z,21.47
2023-03-06T23:00:25.533Z,19.90
2023-03-06T23:02:52.176Z,19.17
2023-03-06T23:05:21.710Z,21.13
2023-03-06T23:07:48.444Z,20.17
2023-03-06T23:10:17.418Z,20.37
2023-03-06T23:12:44.073Z,20.33
2023-03-06T23:15:13.360Z,18.83
2023-03-06T23:17:41.938Z,19.70
2023-03-06T23:20:10.193Z,18.47
2023-03-06T23:22:36.841Z,19.48
2023-03-06T23:25:03.568Z,18.23
2023-03-06T23:27:30.233Z,14.88
2023-03-06T23:29:56.819Z,12.57
2023-03-06T23:32:23.722Z,13.63
2023-03-06T23:34:54.286Z,14.65
2023-03-06T23:37:20.997Z,14.43
2023-03-06T23:39:47.646Z,14.05
2023-03-06T23:42:14.443Z,15.23
2023-03-06T23:44:41.076Z,11.27
2023-03-06T23:47:07.700Z,12.20
2023-03-06T23:49:34.584Z,13.15
2023-03-06T23:52:03.177Z,12.60
2023-03-06T23:54:31.411Z,11.32
2023-03-06T23:56:58.187Z,12.03
2023-03-06T23:59:24.795Z,12.68
